Terminal Aerodrome Forecast
Issued by NWS

Current Version | Previous Version | Text Only | Print | Product List | Glossary On
Versions: 1 2 3 4 5 6 7 8 9 10 11 12 13 14 15 16 17 18 19 20 21 22 23 24 25 26
000
FTUS43 KDMX 281120
TAFOTM
TAF
KOTM 281120Z 2812/2912 10007KT P6SM SCT022 BKN100
     FM281400 12009KT 3SM -TSRA BKN015CB OVC030
     FM281800 10009KT 6SM BR VCSH SCT015 OVC030
     FM290000 13008KT P6SM VCSH OVC040
     FM290700 16008KT P6SM OVC050
     FM291000 19009KT P6SM OVC080=

USA.gov is the U.S. government's official web portal to all federal, state and local government web resources and services.